Time;durP1;ratioP1;P1;durP2;ratioP2;P2;SDS_P1;SDS_P2;PMS_P1;PMS_P2;Temp;Humidity;BMP_temperature;BMP_pressure;BME280_temperature;BME280_humidity;BME280_pressure;Samples;Min_cycle;Max_cycle;Signal;HPM_P1;HPM_P2
2021/02/05 00:00:56;;;;;;;1.76;1.43;;;;;;;19.04;49.09;100043.17;;;;-56
2021/02/05 00:03:56;;;;;;;1.43;1.33;;;;;;;19.02;49.12;100050.55;;;;-56
2021/02/05 00:06:56;;;;;;;1.68;1.44;;;;;;;19.00;49.13;100057.86;;;;-51
2021/02/05 00:09:56;;;;;;;1.97;1.48;;;;;;;18.98;49.12;100068.00;;;;-51
2021/02/05 00:12:56;;;;;;;1.53;1.42;;;;;;;18.97;49.09;100066.64;;;;-52
2021/02/05 00:15:56;;;;;;;2.33;1.49;;;;;;;18.94;49.09;100063.61;;;;-52
2021/02/05 00:18:56;;;;;;;1.62;1.48;;;;;;;18.93;49.16;100060.20;;;;-51
2021/02/05 00:21:56;;;;;;;1.71;1.50;;;;;;;18.91;49.13;100061.18;;;;-52
2021/02/05 00:24:56;;;;;;;1.50;1.40;;;;;;;18.89;49.14;100060.36;;;;-58
2021/02/05 00:27:56;;;;;;;1.50;1.40;;;;;;;18.89;49.13;100061.98;;;;-59
2021/02/05 00:30:56;;;;;;;2.53;1.33;;;;;;;18.88;49.13;100065.87;;;;-59
2021/02/05 00:33:56;;;;;;;1.50;1.40;;;;;;;18.85;49.14;100063.52;;;;-51
2021/02/05 00:36:58;;;;;;;1.55;1.39;;;;;;;18.84;49.15;100064.31;;;;-51
2021/02/05 00:39:56;;;;;;;2.39;1.53;;;;;;;18.82;49.13;100057.23;;;;-59
2021/02/05 00:42:56;;;;;;;1.54;1.39;;;;;;;18.81;49.13;100057.34;;;;-54
2021/02/05 00:45:56;;;;;;;2.02;1.61;;;;;;;18.79;49.16;100054.81;;;;-57
2021/02/05 00:48:56;;;;;;;2.07;1.41;;;;;;;18.76;49.20;100051.38;;;;-57
2021/02/05 00:51:56;;;;;;;1.47;1.37;;;;;;;18.76;49.18;100049.32;;;;-57
2021/02/05 00:54:56;;;;;;;1.56;1.40;;;;;;;18.74;49.19;100051.61;;;;-59
2021/02/05 00:57:56;;;;;;;1.67;1.47;;;;;;;18.73;49.22;100056.55;;;;-59
2021/02/05 01:00:56;;;;;;;1.83;1.48;;;;;;;18.72;49.20;100054.99;;;;-52
2021/02/05 01:03:56;;;;;;;1.70;1.50;;;;;;;18.70;49.26;100059.23;;;;-52
2021/02/05 01:06:56;;;;;;;1.50;1.37;;;;;;;18.68;49.25;100057.20;;;;-51
2021/02/05 01:09:56;;;;;;;1.79;1.50;;;;;;;18.67;49.27;100052.23;;;;-54
2021/02/05 01:12:56;;;;;;;1.61;1.51;;;;;;;18.65;49.31;100051.89;;;;-55
2021/02/05 01:15:56;;;;;;;1.59;1.41;;;;;;;18.63;49.29;100047.83;;;;-54
2021/02/05 01:18:56;;;;;;;1.54;1.35;;;;;;;18.62;49.32;100047.59;;;;-54
2021/02/05 01:21:56;;;;;;;1.79;1.43;;;;;;;18.61;49.32;100046.20;;;;-51
2021/02/05 01:24:56;;;;;;;1.85;1.52;;;;;;;18.61;49.32;100050.98;;;;-51
2021/02/05 01:27:56;;;;;;;1.43;1.29;;;;;;;18.59;49.31;100046.59;;;;-51
2021/02/05 01:30:56;;;;;;;1.84;1.35;;;;;;;18.58;49.31;100041.98;;;;-52
2021/02/05 01:33:56;;;;;;;1.53;1.41;;;;;;;18.56;49.32;100041.72;;;;-51
2021/02/05 01:36:56;;;;;;;1.55;1.40;;;;;;;18.56;49.37;100038.57;;;;-59
2021/02/05 01:39:56;;;;;;;1.39;1.29;;;;;;;18.54;49.35;100036.04;;;;-60
2021/02/05 01:42:56;;;;;;;1.67;1.52;;;;;;;18.53;49.36;100035.05;;;;-52
2021/02/05 01:45:56;;;;;;;1.41;1.31;;;;;;;18.52;49.36;100031.98;;;;-52
2021/02/05 01:48:56;;;;;;;1.73;1.30;;;;;;;18.50;49.42;100038.62;;;;-51
2021/02/05 01:51:56;;;;;;;2.08;1.53;;;;;;;18.49;49.43;100043.96;;;;-52
2021/02/05 01:54:56;;;;;;;1.47;1.37;;;;;;;18.47;49.41;100040.16;;;;-51
2021/02/05 01:57:56;;;;;;;2.07;1.48;;;;;;;18.47;49.44;100041.36;;;;-52
2021/02/05 02:00:56;;;;;;;1.51;1.41;;;;;;;18.46;49.42;100033.66;;;;-57
2021/02/05 02:03:56;;;;;;;1.31;1.21;;;;;;;18.45;49.42;100025.47;;;;-52
2021/02/05 02:06:56;;;;;;;1.50;1.40;;;;;;;18.43;49.46;100022.30;;;;-51
2021/02/05 02:09:56;;;;;;;1.50;1.40;;;;;;;18.43;49.43;100013.59;;;;-55
2021/02/05 02:12:56;;;;;;;1.41;1.31;;;;;;;18.41;49.43;100015.15;;;;-54
2021/02/05 02:15:56;;;;;;;1.48;1.38;;;;;;;18.40;49.48;100019.68;;;;-54
2021/02/05 02:18:56;;;;;;;1.48;1.38;;;;;;;18.39;49.48;100022.77;;;;-55
2021/02/05 02:21:56;;;;;;;1.60;1.50;;;;;;;18.38;49.49;100029.64;;;;-59
2021/02/05 02:24:56;;;;;;;1.55;1.40;;;;;;;18.37;49.48;100021.14;;;;-59
2021/02/05 02:27:56;;;;;;;1.52;1.40;;;;;;;18.36;49.49;100023.47;;;;-58
2021/02/05 02:30:56;;;;;;;3.13;1.30;;;;;;;18.35;49.48;100020.07;;;;-53
2021/02/05 02:33:56;;;;;;;1.53;1.43;;;;;;;18.34;49.47;100023.22;;;;-51
2021/02/05 02:36:56;;;;;;;1.67;1.24;;;;;;;18.34;49.49;100017.70;;;;-51
2021/02/05 02:39:56;;;;;;;1.57;1.47;;;;;;;18.32;49.50;100011.96;;;;-52
2021/02/05 02:42:56;;;;;;;1.58;1.43;;;;;;;18.32;49.51;100010.40;;;;-57
2021/02/05 02:45:56;;;;;;;1.72;1.42;;;;;;;18.30;49.51;100008.77;;;;-59
2021/02/05 02:48:56;;;;;;;1.38;1.28;;;;;;;18.29;49.49;100005.70;;;;-54
2021/02/05 02:51:56;;;;;;;1.46;1.36;;;;;;;18.28;49.51;100009.03;;;;-54
2021/02/05 02:54:56;;;;;;;1.41;1.31;;;;;;;18.27;49.51;100008.27;;;;-57
2021/02/05 02:57:56;;;;;;;1.50;1.40;;;;;;;18.26;49.51;100010.64;;;;-57
2021/02/05 03:00:56;;;;;;;1.37;1.17;;;;;;;18.26;49.52;100008.83;;;;-57
2021/02/05 03:03:56;;;;;;;1.38;1.28;;;;;;;18.24;49.53;100004.22;;;;-51
2021/02/05 03:06:56;;;;;;;1.55;1.40;;;;;;;18.24;49.51;100002.98;;;;-58
2021/02/05 03:09:56;;;;;;;1.50;1.40;;;;;;;18.22;49.53;100001.86;;;;-57
2021/02/05 03:12:56;;;;;;;1.49;1.39;;;;;;;18.22;49.52;100006.22;;;;-56
2021/02/05 03:15:56;;;;;;;1.51;1.41;;;;;;;18.21;49.54;100003.63;;;;-57
2021/02/05 03:18:56;;;;;;;1.49;1.27;;;;;;;18.20;49.50;99998.94;;;;-54
2021/02/05 03:21:56;;;;;;;1.39;1.29;;;;;;;18.19;49.54;100002.00;;;;-54
2021/02/05 03:24:56;;;;;;;1.30;1.20;;;;;;;18.18;49.52;99996.01;;;;-54
2021/02/05 03:27:56;;;;;;;2.34;1.40;;;;;;;18.17;49.53;99990.63;;;;-55
2021/02/05 03:30:56;;;;;;;1.46;1.32;;;;;;;18.17;49.54;99981.39;;;;-54
2021/02/05 03:33:57;;;;;;;1.49;1.39;;;;;;;18.16;49.53;99974.18;;;;-51
2021/02/05 03:36:56;;;;;;;1.79;1.31;;;;;;;18.15;49.54;99971.31;;;;-51
2021/02/05 03:39:56;;;;;;;1.41;1.31;;;;;;;18.15;49.55;99973.19;;;;-57
2021/02/05 03:42:56;;;;;;;1.47;1.37;;;;;;;18.13;49.55;99975.53;;;;-60
2021/02/05 03:45:56;;;;;;;1.43;1.33;;;;;;;18.13;49.54;99969.38;;;;-59
2021/02/05 03:48:56;;;;;;;1.70;1.49;;;;;;;18.12;49.56;99965.48;;;;-51
2021/02/05 03:51:56;;;;;;;1.90;1.30;;;;;;;18.11;49.55;99971.80;;;;-51
2021/02/05 03:54:56;;;;;;;1.40;1.30;;;;;;;18.11;49.57;99977.23;;;;-56
2021/02/05 03:57:56;;;;;;;1.34;1.24;;;;;;;18.10;49.57;99973.99;;;;-56
2021/02/05 04:00:56;;;;;;;1.29;1.19;;;;;;;18.10;49.54;99976.42;;;;-55
2021/02/05 04:03:56;;;;;;;1.45;1.34;;;;;;;18.09;49.57;99981.03;;;;-54
2021/02/05 04:06:56;;;;;;;1.57;1.47;;;;;;;18.08;49.55;99983.15;;;;-54
2021/02/05 04:09:56;;;;;;;1.51;1.41;;;;;;;18.07;49.57;99980.20;;;;-52
2021/02/05 04:12:56;;;;;;;1.61;1.40;;;;;;;18.06;49.60;99979.56;;;;-51
2021/02/05 04:15:56;;;;;;;1.36;1.26;;;;;;;18.05;49.59;99978.52;;;;-52
2021/02/05 04:18:56;;;;;;;1.30;1.20;;;;;;;18.05;49.58;99980.36;;;;-59
2021/02/05 04:21:56;;;;;;;1.67;1.40;;;;;;;18.04;49.60;99982.48;;;;-59
2021/02/05 04:24:56;;;;;;;1.43;1.33;;;;;;;18.03;49.57;99986.91;;;;-59
2021/02/05 04:27:56;;;;;;;1.81;1.39;;;;;;;18.03;49.61;99986.91;;;;-58
2021/02/05 04:30:56;;;;;;;1.49;1.39;;;;;;;18.02;49.58;99986.69;;;;-55
2021/02/05 04:33:56;;;;;;;1.63;1.37;;;;;;;18.02;49.58;99990.74;;;;-54
2021/02/05 04:36:56;;;;;;;1.97;1.42;;;;;;;18.01;49.59;99992.91;;;;-54
2021/02/05 04:39:56;;;;;;;1.50;1.40;;;;;;;18.00;49.58;99993.72;;;;-54
2021/02/05 04:42:56;;;;;;;1.41;1.31;;;;;;;17.99;49.61;99998.08;;;;-51
2021/02/05 04:45:56;;;;;;;1.45;1.31;;;;;;;17.97;49.61;100000.20;;;;-51
2021/02/05 04:48:56;;;;;;;1.38;1.25;;;;;;;17.97;49.65;100005.28;;;;-51
2021/02/05 04:51:56;;;;;;;1.42;1.32;;;;;;;17.97;49.65;100009.75;;;;-59
2021/02/05 04:54:56;;;;;;;1.73;1.55;;;;;;;17.95;49.66;100007.70;;;;-56
2021/02/05 04:57:56;;;;;;;1.71;1.49;;;;;;;17.94;49.67;100015.01;;;;-54
2021/02/05 05:00:56;;;;;;;1.50;1.40;;;;;;;17.94;49.67;100019.55;;;;-54
2021/02/05 05:03:56;;;;;;;1.50;1.40;;;;;;;17.93;49.68;100013.48;;;;-54
2021/02/05 05:06:56;;;;;;;1.50;1.40;;;;;;;17.93;49.62;100016.40;;;;-59
2021/02/05 05:09:56;;;;;;;1.50;1.40;;;;;;;17.92;49.64;100019.62;;;;-59
2021/02/05 05:12:56;;;;;;;1.63;1.37;;;;;;;17.91;49.71;100020.03;;;;-54
2021/02/05 05:15:56;;;;;;;1.50;1.40;;;;;;;17.91;49.65;100015.58;;;;-54
2021/02/05 05:18:56;;;;;;;1.50;1.40;;;;;;;17.91;49.65;100023.93;;;;-51
2021/02/05 05:21:56;;;;;;;1.85;1.50;;;;;;;17.90;49.65;100023.25;;;;-51
2021/02/05 05:24:56;;;;;;;1.43;1.33;;;;;;;17.90;49.66;100021.72;;;;-59
2021/02/05 05:27:56;;;;;;;1.85;1.51;;;;;;;17.89;49.71;100023.02;;;;-56
2021/02/05 05:30:56;;;;;;;1.52;1.40;;;;;;;17.88;49.69;100023.25;;;;-57
2021/02/05 05:33:56;;;;;;;1.57;1.40;;;;;;;17.87;49.69;100033.70;;;;-57
2021/02/05 05:36:56;;;;;;;1.55;1.43;;;;;;;17.86;49.70;100030.92;;;;-54
2021/02/05 05:39:56;;;;;;;1.70;1.60;;;;;;;17.86;49.70;100029.31;;;;-57
2021/02/05 05:42:56;;;;;;;1.43;1.33;;;;;;;17.86;49.70;100033.45;;;;-57
2021/02/05 05:45:56;;;;;;;1.50;1.40;;;;;;;17.85;49.69;100032.40;;;;-59
2021/02/05 05:48:56;;;;;;;1.65;1.54;;;;;;;17.84;49.69;100026.45;;;;-51
2021/02/05 05:51:56;;;;;;;1.56;1.46;;;;;;;17.83;49.72;100029.06;;;;-51
2021/02/05 05:54:56;;;;;;;1.50;1.40;;;;;;;17.83;49.70;100029.14;;;;-51
2021/02/05 05:57:56;;;;;;;1.59;1.49;;;;;;;17.82;49.71;100026.66;;;;-53
2021/02/05 06:00:56;;;;;;;1.40;1.30;;;;;;;17.82;49.71;100024.47;;;;-55
2021/02/05 06:03:56;;;;;;;1.55;1.45;;;;;;;17.82;49.73;100027.88;;;;-55
2021/02/05 06:06:56;;;;;;;2.08;1.52;;;;;;;17.81;49.73;100035.73;;;;-55
2021/02/05 06:09:56;;;;;;;1.49;1.32;;;;;;;17.81;49.73;100033.40;;;;-55
2021/02/05 06:12:56;;;;;;;1.61;1.34;;;;;;;17.81;49.71;100033.72;;;;-54
2021/02/05 06:15:56;;;;;;;1.61;1.39;;;;;;;17.79;49.73;100036.86;;;;-61
2021/02/05 06:18:56;;;;;;;1.41;1.31;;;;;;;17.80;49.72;100033.37;;;;-59
2021/02/05 06:21:56;;;;;;;1.53;1.43;;;;;;;17.81;49.75;100035.75;;;;-59
2021/02/05 06:24:56;;;;;;;1.58;1.48;;;;;;;17.81;49.73;100036.64;;;;-59
2021/02/05 06:28:56;;;;;;;1.69;1.58;;;;;;;17.83;49.73;100035.62;;;;-54
2021/02/05 06:31:56;;;;;;;1.65;1.42;;;;;;;17.85;49.71;100032.56;;;;-54
2021/02/05 06:34:58;;;;;;;1.91;1.61;;;;;;;17.86;49.72;100025.58;;;;-54
2021/02/05 06:37:56;;;;;;;1.50;1.40;;;;;;;17.89;49.66;100022.86;;;;-54
2021/02/05 06:40:56;;;;;;;1.55;1.45;;;;;;;17.91;49.66;100021.00;;;;-54
2021/02/05 06:43:56;;;;;;;1.40;1.30;;;;;;;17.94;49.64;100020.69;;;;-54
2021/02/05 06:46:56;;;;;;;1.61;1.50;;;;;;;17.99;49.59;100018.52;;;;-59
2021/02/05 06:49:56;;;;;;;1.40;1.30;;;;;;;18.03;49.77;100019.19;;;;-58
2021/02/05 06:52:56;;;;;;;1.73;1.42;;;;;;;18.06;49.67;100018.89;;;;-60
2021/02/05 06:55:56;;;;;;;1.59;1.37;;;;;;;18.10;49.65;100022.81;;;;-51
2021/02/05 06:58:56;;;;;;;1.43;1.33;;;;;;;18.14;49.82;100023.64;;;;-51
2021/02/05 07:01:56;;;;;;;1.63;1.48;;;;;;;18.16;49.77;100023.78;;;;-51
2021/02/05 07:04:56;;;;;;;1.54;1.44;;;;;;;18.19;49.83;100023.66;;;;-51
2021/02/05 07:07:56;;;;;;;1.40;1.30;;;;;;;18.20;49.76;100022.45;;;;-52
2021/02/05 07:10:56;;;;;;;1.54;1.42;;;;;;;18.22;49.75;100023.68;;;;-56
2021/02/05 07:13:56;;;;;;;1.97;1.47;;;;;;;18.24;49.84;100028.72;;;;-59
2021/02/05 07:16:56;;;;;;;1.40;1.30;;;;;;;18.26;49.87;100035.95;;;;-55
2021/02/05 07:19:56;;;;;;;1.63;1.50;;;;;;;18.27;49.83;100042.27;;;;-55
2021/02/05 07:22:56;;;;;;;1.51;1.41;;;;;;;18.29;49.76;100051.92;;;;-54
2021/02/05 07:25:56;;;;;;;1.69;1.47;;;;;;;18.29;49.77;100056.55;;;;-54
2021/02/05 07:28:56;;;;;;;1.70;1.52;;;;;;;18.31;49.79;100055.42;;;;-55
2021/02/05 07:31:58;;;;;;;1.43;1.32;;;;;;;18.31;49.74;100057.62;;;;-56
2021/02/05 07:34:56;;;;;;;1.45;1.35;;;;;;;18.30;49.74;100053.70;;;;-56
2021/02/05 07:37:56;;;;;;;1.45;1.35;;;;;;;18.31;49.78;100056.56;;;;-59
2021/02/05 07:40:56;;;;;;;1.49;1.39;;;;;;;18.31;49.73;100064.19;;;;-58
2021/02/05 07:43:56;;;;;;;1.53;1.43;;;;;;;18.32;49.73;100070.18;;;;-54
2021/02/05 07:46:56;;;;;;;2.27;2.03;;;;;;;18.24;49.60;100085.48;;;;-60
2021/02/05 07:49:56;;;;;;;4.01;2.87;;;;;;;18.02;49.73;100094.68;;;;-52
2021/02/05 07:52:56;;;;;;;4.57;3.35;;;;;;;17.85;49.77;100094.81;;;;-51
2021/02/05 07:55:56;;;;;;;8.81;3.27;;;;;;;17.85;50.07;100096.76;;;;-58
2021/02/05 07:58:57;;;;;;;6.04;3.10;;;;;;;17.92;49.87;100101.90;;;;-58
2021/02/05 08:01:56;;;;;;;6.71;2.91;;;;;;;17.98;49.84;100107.87;;;;-51
2021/02/05 08:04:56;;;;;;;5.67;2.61;;;;;;;18.02;49.69;100109.84;;;;-51
2021/02/05 08:07:56;;;;;;;3.31;2.47;;;;;;;18.05;49.62;100107.50;;;;-54
2021/02/05 08:10:56;;;;;;;4.15;2.32;;;;;;;18.07;49.58;100100.61;;;;-55
2021/02/05 08:13:56;;;;;;;3.65;2.33;;;;;;;18.08;49.57;100093.26;;;;-56
2021/02/05 08:16:56;;;;;;;2.98;2.39;;;;;;;18.09;49.54;100085.71;;;;-51
2021/02/05 08:19:56;;;;;;;3.97;2.05;;;;;;;18.11;49.58;100091.73;;;;-52
2021/02/05 08:22:56;;;;;;;3.15;2.11;;;;;;;18.12;49.54;100101.16;;;;-52
2021/02/05 08:25:56;;;;;;;3.25;2.02;;;;;;;18.12;49.49;100099.94;;;;-59
2021/02/05 08:28:56;;;;;;;3.10;2.12;;;;;;;18.12;49.51;100107.64;;;;-54
2021/02/05 08:31:56;;;;;;;4.25;2.45;;;;;;;18.13;49.48;100104.95;;;;-54
2021/02/05 08:34:56;;;;;;;2.18;1.95;;;;;;;18.13;49.51;100101.30;;;;-55
2021/02/05 08:37:56;;;;;;;3.42;1.94;;;;;;;18.13;49.54;100094.81;;;;-55
2021/02/05 08:40:56;;;;;;;2.97;2.00;;;;;;;18.13;49.53;100093.92;;;;-54
2021/02/05 08:43:57;;;;;;;2.46;1.99;;;;;;;18.13;49.54;100102.92;;;;-54
2021/02/05 08:46:56;;;;;;;2.89;2.03;;;;;;;18.13;49.50;100106.73;;;;-58
2021/02/05 08:49:56;;;;;;;2.49;1.96;;;;;;;18.13;49.49;100104.71;;;;-59
2021/02/05 08:52:56;;;;;;;2.33;2.00;;;;;;;18.12;49.73;100106.34;;;;-51
2021/02/05 08:55:56;;;;;;;9.17;2.01;;;;;;;18.16;50.38;100110.66;;;;-53
2021/02/05 08:58:56;;;;;;;16.23;3.38;;;;;;;18.18;50.54;100110.52;;;;-57
2021/02/05 09:01:56;;;;;;;13.97;3.06;;;;;;;18.21;50.74;100119.52;;;;-49
2021/02/05 09:04:56;;;;;;;7.79;2.35;;;;;;;18.25;50.92;100125.31;;;;-49
2021/02/05 09:07:56;;;;;;;8.93;2.44;;;;;;;18.28;50.83;100118.69;;;;-54
2021/02/05 09:10:56;;;;;;;12.32;2.54;;;;;;;18.34;51.09;100122.11;;;;-51
2021/02/05 09:13:56;;;;;;;7.69;2.44;;;;;;;18.39;51.16;100120.93;;;;-52
2021/02/05 09:16:56;;;;;;;7.10;2.34;;;;;;;18.44;51.18;100116.56;;;;-54
2021/02/05 09:19:56;;;;;;;6.25;2.35;;;;;;;18.50;51.36;100114.00;;;;-53
2021/02/05 09:22:56;;;;;;;8.17;2.37;;;;;;;18.55;51.38;100111.50;;;;-50
2021/02/05 09:25:56;;;;;;;8.25;2.10;;;;;;;18.61;51.34;100105.84;;;;-52
2021/02/05 09:28:56;;;;;;;5.42;2.22;;;;;;;18.66;51.26;100101.83;;;;-52
2021/02/05 09:31:56;;;;;;;5.71;2.23;;;;;;;18.70;51.05;100095.34;;;;-60
2021/02/05 09:34:56;;;;;;;5.95;2.33;;;;;;;18.77;51.15;100089.03;;;;-50
2021/02/05 09:37:56;;;;;;;4.27;2.12;;;;;;;18.81;51.04;100092.65;;;;-52
2021/02/05 09:40:56;;;;;;;6.35;2.14;;;;;;;18.87;50.78;100091.13;;;;-50
2021/02/05 09:43:56;;;;;;;4.94;2.22;;;;;;;18.88;50.82;100089.81;;;;-50
2021/02/05 09:46:56;;;;;;;5.17;2.08;;;;;;;18.91;50.77;100088.22;;;;-49
2021/02/05 09:49:56;;;;;;;5.41;2.01;;;;;;;18.97;50.96;100097.25;;;;-49
2021/02/05 09:52:56;;;;;;;4.97;2.05;;;;;;;19.02;50.73;100101.48;;;;-47
2021/02/05 09:55:56;;;;;;;2.63;1.99;;;;;;;19.07;50.70;100102.13;;;;-51
2021/02/05 09:58:56;;;;;;;5.28;2.10;;;;;;;19.12;50.91;100090.54;;;;-46
2021/02/05 10:01:56;;;;;;;6.05;2.07;;;;;;;19.12;50.72;100080.70;;;;-48
2021/02/05 10:04:56;;;;;;;2.93;1.86;;;;;;;19.19;50.81;100070.06;;;;-51
2021/02/05 10:07:56;;;;;;;4.67;1.98;;;;;;;19.24;50.80;100061.64;;;;-53
2021/02/05 10:10:56;;;;;;;2.82;1.96;;;;;;;19.29;50.82;100067.00;;;;-56
2021/02/05 10:13:56;;;;;;;4.29;1.93;;;;;;;19.32;50.69;100066.83;;;;-49
2021/02/05 10:16:56;;;;;;;3.29;2.01;;;;;;;19.33;50.19;100075.28;;;;-54
2021/02/05 10:19:56;;;;;;;5.51;1.83;;;;;;;19.35;50.11;100072.69;;;;-54
2021/02/05 10:22:56;;;;;;;5.15;2.15;;;;;;;19.35;50.01;100070.90;;;;-57
2021/02/05 10:25:56;;;;;;;3.80;1.99;;;;;;;19.36;49.93;100074.16;;;;-54
2021/02/05 10:28:56;;;;;;;4.51;2.05;;;;;;;19.38;49.88;100080.34;;;;-54
2021/02/05 10:31:56;;;;;;;4.99;2.00;;;;;;;19.40;49.73;100081.05;;;;-57
2021/02/05 10:34:56;;;;;;;3.86;1.90;;;;;;;19.42;49.75;100087.83;;;;-57
2021/02/05 10:37:56;;;;;;;3.13;1.80;;;;;;;19.42;49.69;100084.73;;;;-57
2021/02/05 10:40:56;;;;;;;4.99;1.82;;;;;;;19.47;49.88;100079.61;;;;-58
2021/02/05 10:43:56;;;;;;;3.41;1.93;;;;;;;19.51;49.78;100079.83;;;;-51
2021/02/05 10:46:56;;;;;;;3.56;1.82;;;;;;;19.51;49.65;100077.41;;;;-51
2021/02/05 10:49:56;;;;;;;2.89;1.69;;;;;;;19.52;49.64;100079.43;;;;-51
2021/02/05 10:52:56;;;;;;;2.68;1.81;;;;;;;19.53;49.58;100085.95;;;;-50
2021/02/05 10:55:58;;;;;;;2.63;1.83;;;;;;;19.55;49.46;100085.22;;;;-56
2021/02/05 10:58:56;;;;;;;2.55;1.70;;;;;;;19.54;49.32;100080.16;;;;-55
2021/02/05 11:01:56;;;;;;;2.72;1.62;;;;;;;19.55;49.34;100081.56;;;;-50
2021/02/05 11:04:56;;;;;;;2.59;1.51;;;;;;;19.56;49.34;100076.34;;;;-49
2021/02/05 11:07:56;;;;;;;2.58;1.86;;;;;;;19.57;49.31;100075.22;;;;-55
2021/02/05 11:10:56;;;;;;;3.13;1.75;;;;;;;19.59;49.23;100074.90;;;;-50
2021/02/05 11:13:56;;;;;;;3.07;1.67;;;;;;;19.58;49.19;100069.35;;;;-50
2021/02/05 11:16:56;;;;;;;2.67;1.81;;;;;;;19.59;49.18;100060.75;;;;-49
2021/02/05 11:19:56;;;;;;;3.53;1.71;;;;;;;19.60;49.21;100063.91;;;;-56
2021/02/05 11:22:56;;;;;;;1.76;1.51;;;;;;;19.61;49.13;100070.23;;;;-56
2021/02/05 11:25:56;;;;;;;2.05;1.69;;;;;;;19.62;49.00;100061.39;;;;-54
2021/02/05 11:28:56;;;;;;;2.07;1.67;;;;;;;19.63;49.04;100058.48;;;;-54
2021/02/05 11:31:56;;;;;;;2.30;1.70;;;;;;;19.66;49.00;100046.60;;;;-51
2021/02/05 11:34:56;;;;;;;2.84;1.81;;;;;;;19.67;49.03;100045.94;;;;-56
2021/02/05 11:37:56;;;;;;;2.09;1.63;;;;;;;19.67;49.01;100047.17;;;;-58
2021/02/05 11:40:56;;;;;;;2.06;1.67;;;;;;;19.69;48.93;100042.44;;;;-49
2021/02/05 11:43:56;;;;;;;2.81;1.59;;;;;;;19.71;48.98;100038.16;;;;-50
2021/02/05 11:46:56;;;;;;;1.65;1.55;;;;;;;19.72;48.91;100039.88;;;;-50
2021/02/05 11:49:56;;;;;;;1.61;1.49;;;;;;;19.75;48.91;100032.05;;;;-51
2021/02/05 11:52:56;;;;;;;1.89;1.60;;;;;;;19.74;48.88;100023.69;;;;-52
2021/02/05 11:55:56;;;;;;;2.84;1.63;;;;;;;19.75;48.82;100009.86;;;;-51
2021/02/05 11:58:56;;;;;;;2.71;1.66;;;;;;;19.77;48.86;99992.45;;;;-51
2021/02/05 12:01:56;;;;;;;2.13;1.59;;;;;;;19.78;48.71;99975.55;;;;-51
2021/02/05 12:04:56;;;;;;;1.91;1.55;;;;;;;19.79;48.78;99970.66;;;;-51
2021/02/05 12:07:56;;;;;;;1.69;1.50;;;;;;;19.82;48.76;99975.70;;;;-51
2021/02/05 12:10:56;;;;;;;1.53;1.43;;;;;;;19.82;48.82;99976.28;;;;-55
2021/02/05 12:13:56;;;;;;;1.81;1.53;;;;;;;19.83;48.74;99978.53;;;;-56
2021/02/05 12:16:56;;;;;;;2.11;1.69;;;;;;;19.84;48.75;99976.01;;;;-56
2021/02/05 12:19:56;;;;;;;2.69;1.54;;;;;;;19.85;48.75;99978.94;;;;-56
2021/02/05 12:22:56;;;;;;;1.73;1.61;;;;;;;19.86;48.63;99985.37;;;;-58
2021/02/05 12:25:56;;;;;;;1.66;1.49;;;;;;;19.86;48.62;100000.83;;;;-58
2021/02/05 12:28:56;;;;;;;1.62;1.52;;;;;;;19.89;48.72;100002.84;;;;-56
2021/02/05 12:31:56;;;;;;;2.34;1.63;;;;;;;19.89;49.02;100001.95;;;;-56
2021/02/05 12:34:56;;;;;;;2.63;1.51;;;;;;;19.90;49.20;100004.07;;;;-61
2021/02/05 12:37:56;;;;;;;3.39;1.66;;;;;;;19.90;49.08;100007.54;;;;-59
2021/02/05 12:40:57;;;;;;;3.91;1.74;;;;;;;19.90;49.14;100009.19;;;;-45
2021/02/05 12:43:56;;;;;;;5.32;1.79;;;;;;;19.93;49.57;100006.65;;;;-48
2021/02/05 12:46:56;;;;;;;14.41;2.11;;;;;;;19.93;49.38;100017.63;;;;-58
2021/02/05 12:49:56;;;;;;;4.34;1.92;;;;;;;19.92;49.26;100018.34;;;;-50
2021/02/05 12:52:56;;;;;;;2.55;1.91;;;;;;;19.93;49.21;100021.70;;;;-51
2021/02/05 12:55:56;;;;;;;2.98;1.90;;;;;;;19.92;49.11;100014.61;;;;-52
2021/02/05 12:58:56;;;;;;;3.41;2.07;;;;;;;19.93;49.18;100008.61;;;;-60
2021/02/05 13:01:56;;;;;;;4.39;2.14;;;;;;;19.93;49.06;100008.94;;;;-51
2021/02/05 13:04:56;;;;;;;11.22;2.07;;;;;;;19.94;49.28;100010.63;;;;-49
2021/02/05 13:07:56;;;;;;;5.45;2.20;;;;;;;19.97;49.20;100008.27;;;;-52
2021/02/05 13:10:56;;;;;;;4.47;2.10;;;;;;;20.02;49.72;100002.14;;;;-62
2021/02/05 13:13:56;;;;;;;4.37;2.20;;;;;;;20.04;49.45;99998.16;;;;-58
2021/02/05 13:16:56;;;;;;;4.12;1.76;;;;;;;20.06;49.53;99991.88;;;;-54
2021/02/05 13:19:56;;;;;;;5.11;1.93;;;;;;;20.11;50.05;99995.19;;;;-52
2021/02/05 13:22:56;;;;;;;2.94;1.74;;;;;;;20.15;50.31;99994.53;;;;-50
2021/02/05 13:25:56;;;;;;;5.20;2.00;;;;;;;20.17;50.31;99990.61;;;;-47
2021/02/05 13:28:56;;;;;;;7.30;1.90;;;;;;;20.19;50.22;99989.16;;;;-50
2021/02/05 13:31:56;;;;;;;3.12;2.14;;;;;;;20.17;49.79;99988.43;;;;-50
2021/02/05 13:34:56;;;;;;;4.13;2.28;;;;;;;20.16;49.95;99992.83;;;;-52
2021/02/05 13:37:56;;;;;;;4.37;2.33;;;;;;;20.16;49.83;99997.62;;;;-51
2021/02/05 13:40:56;;;;;;;8.05;2.15;;;;;;;20.16;49.44;100009.25;;;;-52
2021/02/05 13:43:56;;;;;;;6.13;2.03;;;;;;;20.20;49.72;100010.95;;;;-51
2021/02/05 13:46:56;;;;;;;5.53;2.14;;;;;;;20.19;49.52;100012.90;;;;-52
2021/02/05 13:49:56;;;;;;;4.51;2.04;;;;;;;20.19;49.27;100016.55;;;;-52
2021/02/05 13:52:56;;;;;;;3.68;1.91;;;;;;;20.17;49.21;100023.34;;;;-53
2021/02/05 13:55:56;;;;;;;4.83;2.21;;;;;;;20.18;49.18;100018.20;;;;-52
2021/02/05 13:58:56;;;;;;;5.95;1.87;;;;;;;20.19;49.11;100018.61;;;;-57
2021/02/05 14:01:56;;;;;;;2.96;1.94;;;;;;;20.21;49.58;100019.58;;;;-60
2021/02/05 14:04:56;;;;;;;4.41;2.00;;;;;;;20.23;49.65;100021.58;;;;-47
2021/02/05 14:07:56;;;;;;;2.91;1.96;;;;;;;20.24;49.43;100019.33;;;;-50
2021/02/05 14:10:56;;;;;;;3.69;2.03;;;;;;;20.26;49.18;100018.00;;;;-56
2021/02/05 14:13:56;;;;;;;2.59;1.85;;;;;;;20.26;49.07;100018.67;;;;-51
2021/02/05 14:16:56;;;;;;;3.87;2.01;;;;;;;20.26;49.04;100019.87;;;;-51
2021/02/05 14:19:56;;;;;;;3.02;1.83;;;;;;;20.26;48.96;100020.20;;;;-51
2021/02/05 14:22:56;;;;;;;6.16;2.42;;;;;;;20.20;49.06;100021.13;;;;-49
2021/02/05 14:25:56;;;;;;;3.28;2.35;;;;;;;20.19;49.06;100021.78;;;;-52
2021/02/05 14:28:56;;;;;;;3.39;2.15;;;;;;;20.20;48.85;100030.23;;;;-52
2021/02/05 14:31:56;;;;;;;6.03;2.09;;;;;;;20.22;48.89;100034.22;;;;-51
2021/02/05 14:34:56;;;;;;;2.85;1.88;;;;;;;20.22;48.81;100031.21;;;;-52
2021/02/05 14:37:56;;;;;;;3.78;2.15;;;;;;;20.22;48.79;100029.02;;;;-52
2021/02/05 14:40:56;;;;;;;2.51;1.89;;;;;;;20.21;48.76;100019.97;;;;-51
2021/02/05 14:43:56;;;;;;;3.38;1.87;;;;;;;20.22;48.75;100016.15;;;;-51
2021/02/05 14:46:56;;;;;;;3.61;1.93;;;;;;;20.22;48.67;100017.45;;;;-51
2021/02/05 14:49:56;;;;;;;4.05;2.01;;;;;;;20.21;48.65;100020.94;;;;-52
2021/02/05 14:52:56;;;;;;;2.47;1.77;;;;;;;20.20;48.65;100022.59;;;;-52
2021/02/05 14:55:56;;;;;;;3.61;1.89;;;;;;;20.20;48.60;100014.04;;;;-52
2021/02/05 14:58:56;;;;;;;2.48;1.87;;;;;;;20.20;48.60;100009.33;;;;-52
2021/02/05 15:01:56;;;;;;;2.56;1.87;;;;;;;20.18;48.63;100009.33;;;;-57
2021/02/05 15:04:56;;;;;;;2.23;1.93;;;;;;;20.19;48.61;100022.09;;;;-50
2021/02/05 15:07:56;;;;;;;2.07;1.87;;;;;;;20.18;48.54;100024.38;;;;-56
2021/02/05 15:10:56;;;;;;;2.05;1.84;;;;;;;20.18;48.49;100025.11;;;;-53
2021/02/05 15:13:56;;;;;;;2.72;1.91;;;;;;;20.18;48.55;100027.08;;;;-51
2021/02/05 15:16:56;;;;;;;2.61;1.81;;;;;;;20.17;48.53;100030.64;;;;-51
2021/02/05 15:19:56;;;;;;;3.26;1.89;;;;;;;20.17;48.54;100026.02;;;;-52
2021/02/05 15:22:57;;;;;;;2.51;1.92;;;;;;;20.17;48.52;100023.02;;;;-52
2021/02/05 15:25:56;;;;;;;3.23;1.92;;;;;;;20.16;48.55;100012.34;;;;-50
2021/02/05 15:28:56;;;;;;;2.95;2.01;;;;;;;20.17;48.56;100014.38;;;;-56
2021/02/05 15:31:56;;;;;;;2.41;1.90;;;;;;;20.18;48.51;100013.41;;;;-52
2021/02/05 15:34:56;;;;;;;3.10;1.94;;;;;;;20.18;48.49;100016.33;;;;-51
2021/02/05 15:37:56;;;;;;;2.81;1.90;;;;;;;20.18;48.47;100022.83;;;;-51
2021/02/05 15:40:56;;;;;;;2.15;1.95;;;;;;;20.18;48.51;100024.53;;;;-50
2021/02/05 15:43:56;;;;;;;2.30;1.95;;;;;;;20.18;48.46;100023.00;;;;-49
2021/02/05 15:46:56;;;;;;;3.30;1.80;;;;;;;20.19;48.85;100011.86;;;;-59
2021/02/05 15:49:56;;;;;;;2.00;1.81;;;;;;;20.22;49.19;100015.59;;;;-59
2021/02/05 15:52:56;;;;;;;2.55;1.95;;;;;;;20.23;49.34;100024.45;;;;-54
2021/02/05 15:55:56;;;;;;;4.31;1.83;;;;;;;20.25;49.53;100020.69;;;;-57
2021/02/05 15:58:56;;;;;;;3.45;1.73;;;;;;;20.25;49.53;100028.91;;;;-55
2021/02/05 16:01:56;;;;;;;3.13;1.89;;;;;;;20.28;49.77;100033.06;;;;-45
2021/02/05 16:04:56;;;;;;;2.97;1.98;;;;;;;20.29;49.90;100029.70;;;;-52
2021/02/05 16:07:56;;;;;;;2.06;1.83;;;;;;;20.33;50.23;100024.24;;;;-50
2021/02/05 16:10:56;;;;;;;2.43;1.75;;;;;;;20.34;50.35;100028.31;;;;-51
2021/02/05 16:13:56;;;;;;;3.39;1.79;;;;;;;20.37;50.31;100020.64;;;;-51
2021/02/05 16:16:56;;;;;;;2.83;1.81;;;;;;;20.37;50.33;100024.45;;;;-57
2021/02/05 16:19:56;;;;;;;3.09;2.05;;;;;;;20.38;50.27;100033.75;;;;-58
2021/02/05 16:22:56;;;;;;;2.79;1.93;;;;;;;20.38;50.19;100034.00;;;;-56
2021/02/05 16:25:56;;;;;;;2.82;2.03;;;;;;;20.40;50.13;100033.33;;;;-56
2021/02/05 16:28:56;;;;;;;3.19;1.89;;;;;;;20.41;49.51;100040.64;;;;-54
2021/02/05 16:31:56;;;;;;;3.01;1.89;;;;;;;20.39;49.32;100043.34;;;;-57
2021/02/05 16:34:56;;;;;;;3.79;1.70;;;;;;;20.39;49.48;100046.11;;;;-52
2021/02/05 16:37:56;;;;;;;2.20;1.85;;;;;;;20.41;49.60;100034.55;;;;-48
2021/02/05 16:40:56;;;;;;;3.21;1.95;;;;;;;20.41;49.77;100032.44;;;;-56
2021/02/05 16:43:56;;;;;;;2.11;1.90;;;;;;;20.42;49.77;100042.42;;;;-52